createdAt,value
2019-04-20T00:00:48.870Z,12.40
2019-04-20T00:03:15.870Z,12.40
2019-04-20T00:05:45.487Z,12.40
2019-04-20T00:08:21.002Z,12.40
2019-04-20T00:10:54.780Z,12.40
2019-04-20T00:13:30.306Z,12.40
2019-04-20T00:15:49.244Z,12.30
2019-04-20T00:18:19.206Z,12.40
2019-04-20T00:21:02.213Z,12.40
2019-04-20T00:23:47.988Z,12.40
2019-04-20T00:27:04.688Z,12.40
2019-04-20T00:29:25.436Z,12.40
2019-04-20T00:31:48.891Z,12.50
2019-04-20T00:34:16.898Z,12.40
2019-04-20T00:36:43.200Z,12.50
2019-04-20T00:39:15.006Z,12.50
2019-04-20T00:41:48.953Z,12.50
2019-04-20T00:44:21.951Z,12.50
2019-04-20T00:46:56.832Z,12.60
2019-04-20T00:49:31.082Z,12.60
2019-04-20T00:52:15.659Z,12.60
2019-04-20T00:54:17.970Z,12.60
2019-04-20T00:56:47.854Z,12.60
2019-04-20T00:59:29.017Z,12.60
2019-04-20T01:02:06.390Z,12.70
2019-04-20T01:04:37.839Z,12.80
2019-04-20T01:07:24.152Z,12.80
2019-04-20T01:10:04.673Z,12.90
2019-04-20T01:12:36.918Z,13.00
2019-04-20T01:15:25.663Z,13.10
2019-04-20T01:17:44.882Z,13.10
2019-04-20T01:20:13.986Z,13.20
2019-04-20T01:22:51.436Z,13.20
2019-04-20T01:25:23.067Z,13.20
2019-04-20T01:28:04.600Z,13.30
2019-04-20T01:30:25.332Z,13.30
2019-04-20T01:33:00.192Z,13.30
2019-04-20T01:35:37.964Z,13.30
2019-04-20T01:38:09.551Z,13.30
2019-04-20T01:40:19.250Z,13.20
2019-04-20T01:42:48.976Z,13.10
2019-04-20T01:45:27.172Z,13.10
2019-04-20T01:47:53.057Z,13.10
2019-04-20T01:50:24.357Z,13.00
2019-04-20T01:53:01.705Z,12.90
2019-04-20T01:55:45.685Z,12.80
2019-04-20T01:58:33.704Z,12.80
2019-04-20T02:00:53.029Z,12.70
2019-04-20T02:03:38.386Z,12.70
2019-04-20T02:06:09.858Z,12.60
2019-04-20T02:08:35.851Z,12.50
2019-04-20T02:11:07.369Z,12.50
2019-04-20T02:13:42.504Z,12.60
2019-04-20T02:16:15.825Z,12.50
2019-04-20T02:18:53.862Z,12.50
2019-04-20T02:21:25.860Z,12.60
2019-04-20T02:23:47.507Z,12.60
2019-04-20T02:26:09.244Z,12.50
2019-04-20T02:29:06.049Z,12.50
2019-04-20T02:31:57.824Z,12.50
2019-04-20T02:34:29.222Z,12.40
2019-04-20T02:39:39.475Z,12.40
2019-04-20T02:41:57.904Z,12.40
2019-04-20T02:44:44.279Z,12.30
2019-04-20T02:49:36.167Z,12.30
2019-04-20T02:52:06.713Z,12.30
2019-04-20T02:54:30.765Z,12.30
2019-04-20T02:57:05.714Z,12.30
2019-04-20T02:59:53.874Z,12.20
2019-04-20T03:01:50.279Z,12.20
2019-04-20T03:04:10.678Z,12.20
2019-04-20T03:06:59.812Z,12.20
2019-04-20T03:09:32.841Z,12.10
2019-04-20T03:14:29.382Z,12.10
2019-04-20T03:17:04.356Z,12.00
2019-04-20T03:19:28.404Z,12.00
2019-04-20T03:22:09.098Z,12.00
2019-04-20T03:27:07.552Z,12.10
2019-04-20T03:29:56.699Z,12.00
2019-04-20T03:35:28.331Z,12.00
2019-04-20T03:37:44.194Z,11.90
2019-04-20T03:40:09.358Z,11.90
2019-04-20T03:42:24.339Z,11.90
2019-04-20T03:45:01.783Z,11.90
2019-04-20T03:47:36.948Z,11.90
2019-04-20T03:50:29.309Z,11.80
2019-04-20T03:53:08.878Z,11.80
2019-04-20T03:55:51.604Z,11.80
2019-04-20T03:58:33.486Z,11.70
2019-04-20T04:01:45.607Z,11.70
2019-04-20T04:04:05.210Z,11.60
2019-04-20T04:06:24.137Z,11.50
2019-04-20T04:08:58.706Z,11.40
2019-04-20T04:11:34.275Z,11.40
2019-04-20T04:13:45.998Z,11.40
2019-04-20T04:16:18.497Z,11.40
2019-04-20T04:18:49.640Z,11.40
2019-04-20T04:21:27.133Z,11.40
2019-04-20T04:24:03.582Z,11.40
2019-04-20T04:26:38.027Z,11.40
2019-04-20T04:29:14.940Z,11.40
2019-04-20T04:31:50.904Z,11.40
2019-04-20T04:34:10.845Z,11.40
2019-04-20T04:36:46.465Z,11.40
2019-04-20T04:39:15.223Z,11.40
2019-04-20T04:41:43.926Z,11.40
2019-04-20T04:44:10.984Z,11.40
2019-04-20T04:46:27.132Z,11.50
2019-04-20T04:49:06.797Z,11.50
2019-04-20T04:51:38.757Z,11.50
2019-04-20T04:54:03.680Z,11.50
2019-04-20T04:56:29.947Z,11.60
2019-04-20T04:58:58.239Z,11.50
2019-04-20T05:01:30.943Z,11.50
2019-04-20T05:04:23.060Z,11.60
2019-04-20T05:06:45.824Z,11.70
2019-04-20T05:09:03.494Z,11.70
2019-04-20T05:11:30.182Z,11.80
2019-04-20T05:14:04.990Z,11.80
2019-04-20T05:16:51.023Z,11.80
2019-04-20T05:19:23.443Z,11.80
2019-04-20T05:21:59.825Z,11.90
2019-04-20T05:24:30.584Z,11.90
2019-04-20T05:27:24.914Z,11.90
2019-04-20T05:29:34.972Z,12.00
2019-04-20T05:32:10.690Z,12.00
2019-04-20T05:35:02.457Z,12.10
2019-04-20T05:37:34.254Z,12.20
2019-04-20T05:39:57.522Z,12.20
2019-04-20T05:42:31.417Z,12.30
2019-04-20T05:44:55.929Z,12.30
2019-04-20T05:47:29.201Z,12.40
2019-04-20T05:49:53.861Z,12.50
2019-04-20T05:52:36.143Z,12.50
2019-04-20T05:55:03.181Z,12.60
2019-04-20T05:57:31.899Z,12.60
2019-04-20T06:02:33.520Z,12.80
2019-04-20T06:05:04.430Z,12.80
2019-04-20T06:07:37.183Z,12.90
2019-04-20T06:10:09.855Z,13.00
2019-04-20T06:12:38.576Z,13.10
2019-04-20T06:15:14.426Z,13.20
2019-04-20T06:18:10.193Z,13.20
2019-04-20T06:20:44.774Z,13.30
2019-04-20T06:23:38.658Z,13.40
2019-04-20T06:26:19.406Z,13.50
2019-04-20T06:28:29.805Z,13.70
2019-04-20T06:30:59.186Z,13.80
2019-04-20T06:34:27.147Z,13.90
2019-04-20T06:36:57.345Z,14.10
2019-04-20T06:39:19.989Z,14.30
2019-04-20T06:42:06.513Z,14.50
2019-04-20T06:44:24.694Z,14.60
2019-04-20T06:46:58.832Z,14.80
2019-04-20T06:51:59.229Z,15.10
2019-04-20T06:54:25.689Z,15.30
2019-04-20T06:57:06.923Z,15.50
2019-04-20T06:59:38.655Z,15.70
2019-04-20T07:02:11.961Z,15.90
2019-04-20T07:04:46.092Z,16.10
2019-04-20T07:07:10.176Z,16.30
2019-04-20T07:09:46.228Z,16.40
2019-04-20T07:12:06.729Z,16.60
2019-04-20T07:14:35.795Z,16.80
2019-04-20T07:17:35.001Z,17.00
2019-04-20T07:20:04.185Z,17.20
2019-04-20T07:22:45.993Z,17.40
2019-04-20T07:25:14.019Z,17.60
2019-04-20T07:27:52.143Z,17.70
2019-04-20T07:30:19.374Z,18.00
2019-04-20T07:32:52.672Z,18.20
2019-04-20T07:35:22.120Z,18.40
2019-04-20T07:40:20.648Z,18.70
2019-04-20T07:42:55.346Z,18.90
2019-04-20T07:48:02.751Z,19.20
2019-04-20T07:50:21.806Z,19.30
2019-04-20T07:52:46.205Z,19.40
2019-04-20T07:57:55.120Z,19.50
2019-04-20T08:00:41.526Z,19.60
2019-04-20T08:03:39.090Z,19.80
2019-04-20T08:06:16.501Z,19.90
2019-04-20T08:08:53.187Z,20.00
2019-04-20T08:11:28.778Z,20.00
2019-04-20T08:14:06.001Z,20.10
2019-04-20T08:16:41.023Z,20.30
2019-04-20T08:18:59.115Z,20.50
2019-04-20T08:21:35.168Z,20.70
2019-04-20T08:24:07.415Z,20.90
2019-04-20T08:26:22.999Z,21.10
2019-04-20T08:29:00.352Z,21.30
2019-04-20T08:31:56.288Z,21.40
2019-04-20T08:34:38.019Z,21.50
2019-04-20T08:37:03.218Z,21.70
2019-04-20T08:39:45.428Z,21.90
2019-04-20T08:42:16.378Z,22.00
2019-04-20T08:47:14.594Z,22.20
2019-04-20T08:49:35.118Z,22.40
2019-04-20T08:52:37.933Z,22.50
2019-04-20T08:54:32.545Z,22.70
2019-04-20T08:56:53.844Z,22.90
2019-04-20T08:59:18.886Z,23.00
2019-04-20T09:01:48.929Z,23.20
2019-04-20T09:04:24.124Z,23.30
2019-04-20T09:07:02.624Z,23.40
2019-04-20T09:09:44.322Z,23.30
2019-04-20T09:12:05.926Z,23.30
2019-04-20T09:14:21.329Z,23.50
2019-04-20T09:17:04.966Z,23.40
2019-04-20T09:19:37.956Z,23.50
2019-04-20T09:22:28.061Z,23.60
2019-04-20T09:25:24.882Z,23.70
2019-04-20T09:27:29.446Z,23.80
2019-04-20T09:30:04.302Z,23.80
2019-04-20T09:32:40.167Z,23.80
2019-04-20T09:35:15.979Z,23.90
2019-04-20T09:38:01.820Z,24.00
2019-04-20T09:40:35.541Z,24.00
2019-04-20T09:43:02.310Z,24.20
2019-04-20T09:45:52.663Z,24.40
2019-04-20T09:48:25.233Z,24.30
2019-04-20T09:51:09.151Z,24.30
2019-04-20T09:53:29.438Z,24.40
2019-04-20T09:56:10.746Z,24.50
2019-04-20T09:58:30.898Z,24.60
2019-04-20T10:01:08.415Z,24.80
2019-04-20T10:03:24.748Z,24.90
2019-04-20T10:05:53.978Z,25.00
2019-04-20T10:08:23.946Z,25.10
2019-04-20T10:10:54.383Z,25.20
2019-04-20T10:13:25.212Z,25.40
2019-04-20T10:15:55.679Z,25.60
2019-04-20T10:18:25.934Z,25.50
2019-04-20T10:20:55.820Z,25.40
2019-04-20T10:23:26.883Z,25.40
2019-04-20T10:25:56.539Z,25.50
2019-04-20T10:28:27.582Z,25.60
2019-04-20T10:30:58.578Z,25.60
2019-04-20T10:33:28.074Z,25.70
2019-04-20T10:35:57.444Z,25.60
2019-04-20T10:38:32.842Z,25.40
2019-04-20T10:41:08.209Z,25.50
2019-04-20T10:43:30.971Z,25.50
2019-04-20T10:46:00.319Z,25.70
2019-04-20T10:48:31.974Z,25.90
2019-04-20T10:51:01.084Z,26.10
2019-04-20T10:53:32.085Z,26.20
2019-04-20T10:56:03.469Z,26.20
2019-04-20T10:58:33.970Z,26.20
2019-04-20T11:01:03.933Z,26.30
2019-04-20T11:03:34.474Z,26.40
2019-04-20T11:06:04.815Z,26.60
2019-04-20T11:08:34.856Z,26.90
2019-04-20T11:11:12.951Z,27.10
2019-04-20T11:13:35.239Z,27.10
2019-04-20T11:16:04.371Z,27.30
2019-04-20T11:18:33.507Z,27.20
2019-04-20T11:21:03.649Z,27.30
2019-04-20T11:23:34.106Z,27.30
2019-04-20T11:26:04.321Z,27.30
2019-04-20T11:28:37.876Z,27.40
2019-04-20T11:31:10.292Z,27.60
2019-04-20T11:33:40.393Z,27.70
2019-04-20T11:36:09.968Z,27.90
2019-04-20T11:38:38.896Z,28.00
2019-04-20T11:41:16.522Z,28.10
2019-04-20T11:43:39.826Z,28.40
2019-04-20T11:46:08.992Z,28.80
2019-04-20T11:48:39.314Z,29.20
2019-04-20T11:51:09.515Z,29.40
2019-04-20T11:53:38.639Z,29.60
2019-04-20T11:56:14.514Z,29.40
2019-04-20T11:58:38.924Z,29.50
2019-04-20T12:01:43.987Z,29.40
2019-04-20T12:04:22.847Z,29.50
2019-04-20T12:06:39.153Z,29.30
2019-04-20T12:09:10.957Z,29.20
2019-04-20T12:11:56.269Z,29.20
2019-04-20T12:14:12.587Z,29.40
2019-04-20T12:16:41.740Z,29.60
2019-04-20T12:19:10.854Z,29.50
2019-04-20T12:21:40.907Z,29.50
2019-04-20T12:24:12.146Z,29.80
2019-04-20T12:26:42.724Z,30.10
2019-04-20T12:29:12.000Z,30.40
2019-04-20T12:31:44.359Z,30.70
2019-04-20T12:34:12.713Z,30.60
2019-04-20T12:36:43.214Z,30.40
2019-04-20T12:39:13.226Z,30.40
2019-04-20T12:41:50.441Z,30.50
2019-04-20T12:44:14.364Z,30.40
2019-04-20T12:46:43.748Z,29.90
2019-04-20T12:49:15.848Z,29.90
2019-04-20T12:51:53.966Z,30.10
2019-04-20T12:54:16.581Z,30.30
2019-04-20T12:56:46.595Z,30.60
2019-04-20T12:59:16.232Z,30.70
2019-04-20T13:01:45.050Z,30.90
2019-04-20T13:04:14.398Z,30.80
2019-04-20T13:06:44.753Z,30.90
2019-04-20T13:09:14.583Z,30.70
2019-04-20T13:12:09.966Z,30.50
2019-04-20T13:15:18.243Z,30.50
2019-04-20T13:17:49.783Z,30.60
2019-04-20T13:20:21.644Z,31.00
2019-04-20T13:22:50.978Z,31.10
2019-04-20T13:25:21.055Z,31.20
2019-04-20T13:27:50.462Z,31.40
2019-04-20T13:30:21.669Z,31.40
2019-04-20T13:32:51.687Z,31.50
2019-04-20T13:35:22.394Z,31.60
2019-04-20T13:37:51.959Z,31.80
2019-04-20T13:40:21.810Z,31.80
2019-04-20T13:42:51.889Z,31.70
2019-04-20T13:45:21.256Z,31.40
2019-04-20T13:47:50.886Z,31.30
2019-04-20T13:50:22.046Z,30.90
2019-04-20T13:52:51.109Z,30.90
2019-04-20T13:55:23.415Z,30.90
2019-04-20T13:57:57.682Z,30.90
2019-04-20T14:00:55.529Z,30.80
2019-04-20T14:03:24.963Z,30.60
2019-04-20T14:05:54.047Z,30.70
2019-04-20T14:08:27.395Z,30.80
2019-04-20T14:10:57.602Z,31.10
2019-04-20T14:13:36.587Z,31.20
2019-04-20T14:15:57.162Z,31.30
2019-04-20T14:18:27.001Z,31.40
2019-04-20T14:20:56.261Z,31.50
2019-04-20T14:23:25.478Z,31.70
2019-04-20T14:25:54.704Z,31.90
2019-04-20T14:28:24.849Z,32.10
2019-04-20T14:30:54.180Z,32.30
2019-04-20T14:33:24.198Z,32.30
2019-04-20T14:35:53.200Z,32.20
2019-04-20T14:38:22.284Z,31.90
2019-04-20T14:40:52.233Z,31.80
2019-04-20T14:43:22.410Z,32.00
2019-04-20T14:45:52.429Z,32.00
2019-04-20T14:48:22.792Z,32.00
2019-04-20T14:50:51.947Z,31.60
2019-04-20T14:53:21.083Z,31.30
2019-04-20T14:55:51.322Z,30.70
2019-04-20T14:58:41.444Z,30.60
2019-04-20T15:01:28.246Z,30.50
2019-04-20T15:04:04.836Z,30.70
2019-04-20T15:06:29.589Z,31.00
2019-04-20T15:08:58.865Z,31.30
2019-04-20T15:11:27.665Z,31.50
2019-04-20T15:13:56.552Z,31.50
2019-04-20T15:16:26.546Z,31.60
2019-04-20T15:19:13.710Z,31.60
2019-04-20T15:21:45.418Z,31.50
2019-04-20T15:24:15.455Z,31.20
2019-04-20T15:26:45.058Z,31.00
2019-04-20T15:29:14.663Z,31.00
2019-04-20T15:31:43.989Z,30.80
2019-04-20T15:34:14.965Z,30.90
2019-04-20T15:36:44.456Z,30.90
2019-04-20T15:39:14.833Z,31.00
2019-04-20T15:41:45.342Z,31.00
2019-04-20T15:44:15.271Z,30.90
2019-04-20T15:46:45.515Z,30.90
2019-04-20T15:49:15.759Z,31.10
2019-04-20T15:51:46.019Z,31.20
2019-04-20T15:54:15.660Z,31.00
2019-04-20T15:56:52.668Z,31.10
2019-04-20T15:59:15.042Z,31.30
2019-04-20T16:01:49.244Z,31.50
2019-04-20T16:04:40.787Z,31.50
2019-04-20T16:07:08.428Z,31.80
2019-04-20T16:09:37.913Z,31.80
2019-04-20T16:12:07.076Z,31.80
2019-04-20T16:14:35.934Z,31.90
2019-04-20T16:17:07.388Z,31.80
2019-04-20T16:19:47.368Z,31.90
2019-04-20T16:22:07.798Z,32.00
2019-04-20T16:24:40.860Z,32.00
2019-04-20T16:27:35.903Z,31.80
2019-04-20T16:30:07.418Z,31.60
2019-04-20T16:32:36.847Z,31.40
2019-04-20T16:35:08.595Z,31.20
2019-04-20T16:37:38.485Z,31.20
2019-04-20T16:40:08.519Z,31.20
2019-04-20T16:42:40.461Z,31.30
2019-04-20T16:45:09.518Z,31.20
2019-04-20T16:47:38.322Z,31.30
2019-04-20T16:50:08.757Z,31.40
2019-04-20T16:52:39.011Z,31.30
2019-04-20T16:55:11.062Z,31.00
2019-04-20T16:57:39.721Z,31.00
2019-04-20T17:00:09.458Z,30.90
2019-04-20T17:02:38.487Z,30.90
2019-04-20T17:05:09.249Z,30.70
2019-04-20T17:07:41.101Z,30.60
2019-04-20T17:10:11.849Z,30.40
2019-04-20T17:12:41.908Z,30.40
2019-04-20T17:15:13.920Z,30.20
2019-04-20T17:17:46.647Z,30.20
2019-04-20T17:20:15.631Z,29.50
2019-04-20T17:22:44.665Z,29.10
2019-04-20T17:25:16.299Z,28.50
2019-04-20T17:27:59.445Z,28.00
2019-04-20T17:30:54.913Z,27.30
2019-04-20T17:33:58.489Z,26.50
2019-04-20T17:36:21.778Z,25.90
2019-04-20T17:38:52.647Z,25.10
2019-04-20T17:41:43.243Z,24.60
2019-04-20T17:44:07.250Z,24.20
2019-04-20T17:46:35.806Z,23.80
2019-04-20T17:49:04.190Z,23.60
2019-04-20T17:51:40.105Z,23.40
2019-04-20T17:54:19.983Z,23.00
2019-04-20T17:56:49.267Z,22.70
2019-04-20T17:59:18.168Z,22.40
2019-04-20T18:02:17.780Z,22.20
2019-04-20T18:05:07.176Z,22.10
2019-04-20T18:07:35.257Z,21.70
2019-04-20T18:10:08.162Z,21.40
2019-04-20T18:12:26.825Z,21.20
2019-04-20T18:15:06.188Z,21.10
2019-04-20T18:17:55.136Z,20.90
2019-04-20T18:20:32.735Z,20.90
2019-04-20T18:23:02.498Z,20.80
2019-04-20T18:25:58.907Z,20.80
2019-04-20T18:28:58.779Z,20.80
2019-04-20T18:31:13.478Z,20.70
2019-04-20T18:33:48.632Z,20.60
2019-04-20T18:36:23.386Z,20.50
2019-04-20T18:38:57.504Z,20.40
2019-04-20T18:41:30.935Z,20.20
2019-04-20T18:43:57.431Z,20.10
2019-04-20T18:46:52.295Z,20.00
2019-04-20T18:49:13.628Z,19.90
2019-04-20T18:51:27.919Z,19.80
2019-04-20T18:54:05.701Z,19.70
2019-04-20T18:56:33.836Z,19.50
2019-04-20T18:59:01.394Z,19.40
2019-04-20T19:04:19.820Z,19.10
2019-04-20T19:06:50.027Z,18.80
2019-04-20T19:09:27.171Z,18.60
2019-04-20T19:12:00.767Z,18.40
2019-04-20T19:14:36.571Z,18.10
2019-04-20T19:17:22.427Z,18.00
2019-04-20T19:19:52.884Z,17.90
2019-04-20T19:22:19.644Z,17.80
2019-04-20T19:24:49.793Z,17.70
2019-04-20T19:27:19.806Z,17.50
2019-04-20T19:29:58.929Z,17.40
2019-04-20T19:32:38.155Z,17.20
2019-04-20T19:35:01.316Z,17.10
2019-04-20T19:37:28.550Z,17.00
2019-04-20T19:42:39.228Z,16.90
2019-04-20T19:45:25.225Z,16.80
2019-04-20T19:47:42.730Z,16.70
2019-04-20T19:50:25.144Z,16.70
2019-04-20T19:52:55.842Z,16.50
2019-04-20T19:55:14.325Z,16.40
2019-04-20T19:57:45.338Z,16.40
2019-04-20T20:00:02.518Z,16.30
2019-04-20T20:02:31.903Z,16.30
2019-04-20T20:05:07.162Z,16.20
2019-04-20T20:07:38.815Z,16.20
2019-04-20T20:10:05.851Z,16.10
2019-04-20T20:12:33.732Z,16.00
2019-04-20T20:15:07.336Z,16.00
2019-04-20T20:17:54.213Z,15.90
2019-04-20T20:20:30.836Z,15.80
2019-04-20T20:22:42.485Z,15.80
2019-04-20T20:25:07.294Z,15.70
2019-04-20T20:27:48.952Z,15.60
2019-04-20T20:30:15.061Z,15.50
2019-04-20T20:32:56.764Z,15.50
2019-04-20T20:35:17.857Z,15.50
2019-04-20T20:37:50.212Z,15.30
2019-04-20T20:40:25.364Z,15.30
2019-04-20T20:42:56.518Z,15.30
2019-04-20T20:45:29.489Z,15.30
2019-04-20T20:48:12.085Z,15.20
2019-04-20T20:50:42.729Z,15.20
2019-04-20T20:53:05.056Z,15.20
2019-04-20T20:55:32.089Z,15.20
2019-04-20T20:58:01.712Z,15.10
2019-04-20T21:00:38.809Z,15.10
2019-04-20T21:03:02.527Z,15.00
2019-04-20T21:05:27.467Z,15.00
2019-04-20T21:07:57.478Z,15.00
2019-04-20T21:10:33.123Z,15.00
2019-04-20T21:13:01.817Z,15.00
2019-04-20T21:15:30.290Z,15.00
2019-04-20T21:18:20.556Z,15.00
2019-04-20T21:20:47.934Z,15.00
2019-04-20T21:23:17.535Z,14.90
2019-04-20T21:26:01.150Z,14.90
2019-04-20T21:28:31.067Z,14.80
2019-04-20T21:31:10.540Z,14.80
2019-04-20T21:33:34.893Z,14.80
2019-04-20T21:36:02.804Z,14.70
2019-04-20T21:38:36.989Z,14.70
2019-04-20T21:41:08.795Z,14.70
2019-04-20T21:43:38.827Z,14.60
2019-04-20T21:46:08.934Z,14.60
2019-04-20T21:48:51.639Z,14.60
2019-04-20T21:51:19.077Z,14.50
2019-04-20T21:53:56.386Z,14.50
2019-04-20T21:56:53.861Z,14.50
2019-04-20T21:59:30.627Z,14.50
2019-04-20T22:02:02.242Z,14.50
2019-04-20T22:04:25.174Z,14.40
2019-04-20T22:07:02.898Z,14.30
2019-04-20T22:09:40.227Z,14.30
2019-04-20T22:12:05.723Z,14.20
2019-04-20T22:14:37.635Z,14.20
2019-04-20T22:17:07.667Z,14.10
2019-04-20T22:19:45.900Z,14.10
2019-04-20T22:22:18.659Z,14.00
2019-04-20T22:24:50.492Z,14.00
2019-04-20T22:27:15.862Z,13.90
2019-04-20T22:29:39.793Z,13.90
2019-04-20T22:32:12.802Z,13.90
2019-04-20T22:34:39.816Z,13.80
2019-04-20T22:37:15.248Z,13.80
2019-04-20T22:39:58.314Z,13.80
2019-04-20T22:42:30.331Z,13.80
2019-04-20T22:45:05.246Z,13.70
2019-04-20T22:47:32.691Z,13.60
2019-04-20T22:50:20.184Z,13.60
2019-04-20T22:52:44.456Z,13.50
2019-04-20T22:55:27.091Z,13.60
2019-04-20T22:57:48.429Z,13.50
2019-04-20T23:00:15.963Z,13.50
2019-04-20T23:02:42.808Z,13.60
2019-04-20T23:05:13.131Z,13.60
2019-04-20T23:07:41.954Z,13.50
2019-04-20T23:10:11.334Z,13.50
2019-04-20T23:12:48.025Z,13.50
2019-04-20T23:15:12.180Z,13.40
2019-04-20T23:17:45.118Z,13.30
2019-04-20T23:20:17.237Z,13.30
2019-04-20T23:22:46.193Z,13.30
2019-04-20T23:25:15.305Z,13.20
2019-04-20T23:27:45.794Z,13.20
2019-04-20T23:30:23.710Z,13.20
2019-04-20T23:32:46.379Z,13.10
2019-04-20T23:35:19.598Z,13.10
2019-04-20T23:37:46.494Z,13.00
2019-04-20T23:40:29.940Z,13.00
2019-04-20T23:43:08.902Z,12.90
2019-04-20T23:46:08.330Z,12.90
2019-04-20T23:48:41.266Z,12.80
2019-04-20T23:51:29.546Z,12.80
2019-04-20T23:54:10.233Z,12.70
2019-04-20T23:56:29.924Z,12.60
2019-04-20T23:58:59.833Z,12.60
